sensor_id;sensor_type;location;lat;lon;timestamp;P1;durP1;ratioP1;P2;durP2;ratioP2
76894;SDS011;65855;42.030;13.078;2023-08-06T00:01:38;5.50;;;2.00;;
76894;SDS011;65855;42.030;13.078;2023-08-06T00:04:03;6.72;;;2.50;;
76894;SDS011;65855;42.030;13.078;2023-08-06T00:06:29;7.50;;;2.25;;
76894;SDS011;65855;42.030;13.078;2023-08-06T00:08:54;6.97;;;2.78;;
76894;SDS011;65855;42.030;13.078;2023-08-06T00:11:20;7.28;;;2.15;;
76894;SDS011;65855;42.030;13.078;2023-08-06T00:13:45;7.32;;;2.75;;
76894;SDS011;65855;42.030;13.078;2023-08-06T00:16:11;8.38;;;2.53;;
76894;SDS011;65855;42.030;13.078;2023-08-06T00:18:38;6.38;;;2.20;;
76894;SDS011;65855;42.030;13.078;2023-08-06T00:21:04;7.60;;;2.67;;
76894;SDS011;65855;42.030;13.078;2023-08-06T00:23:30;6.03;;;2.47;;
76894;SDS011;65855;42.030;13.078;2023-08-06T00:25:55;8.32;;;2.45;;
76894;SDS011;65855;42.030;13.078;2023-08-06T00:28:20;5.85;;;2.35;;
76894;SDS011;65855;42.030;13.078;2023-08-06T00:30:46;5.85;;;2.22;;
76894;SDS011;65855;42.030;13.078;2023-08-06T00:33:11;6.93;;;2.58;;
76894;SDS011;65855;42.030;13.078;2023-08-06T00:35:37;8.52;;;2.53;;
76894;SDS011;65855;42.030;13.078;2023-08-06T00:38:02;7.05;;;2.65;;
76894;SDS011;65855;42.030;13.078;2023-08-06T00:40:27;5.65;;;2.50;;
76894;SDS011;65855;42.030;13.078;2023-08-06T00:42:56;9.43;;;2.55;;
76894;SDS011;65855;42.030;13.078;2023-08-06T00:45:21;6.90;;;2.40;;
76894;SDS011;65855;42.030;13.078;2023-08-06T00:47:48;6.00;;;2.42;;
76894;SDS011;65855;42.030;13.078;2023-08-06T00:50:13;6.53;;;2.47;;
76894;SDS011;65855;42.030;13.078;2023-08-06T00:52:39;4.88;;;2.05;;
76894;SDS011;65855;42.030;13.078;2023-08-06T00:55:05;9.00;;;2.83;;
76894;SDS011;65855;42.030;13.078;2023-08-06T00:57:32;5.80;;;2.13;;
76894;SDS011;65855;42.030;13.078;2023-08-06T00:59:57;5.72;;;2.60;;
76894;SDS011;65855;42.030;13.078;2023-08-06T01:02:23;8.15;;;3.63;;
76894;SDS011;65855;42.030;13.078;2023-08-06T01:04:48;9.43;;;2.70;;
76894;SDS011;65855;42.030;13.078;2023-08-06T01:10:33;6.65;;;2.25;;
76894;SDS011;65855;42.030;13.078;2023-08-06T01:15:32;5.70;;;2.38;;
76894;SDS011;65855;42.030;13.078;2023-08-06T01:18:04;7.05;;;2.20;;
76894;SDS011;65855;42.030;13.078;2023-08-06T01:20:30;5.13;;;2.35;;
76894;SDS011;65855;42.030;13.078;2023-08-06T01:22:56;7.82;;;2.20;;
76894;SDS011;65855;42.030;13.078;2023-08-06T01:25:21;8.48;;;2.22;;
76894;SDS011;65855;42.030;13.078;2023-08-06T01:28:05;6.55;;;2.85;;
76894;SDS011;65855;42.030;13.078;2023-08-06T01:30:47;5.75;;;2.38;;
76894;SDS011;65855;42.030;13.078;2023-08-06T01:33:16;5.00;;;1.77;;
76894;SDS011;65855;42.030;13.078;2023-08-06T01:35:45;6.07;;;2.00;;
76894;SDS011;65855;42.030;13.078;2023-08-06T01:38:12;6.47;;;2.28;;
76894;SDS011;65855;42.030;13.078;2023-08-06T01:40:37;5.55;;;2.38;;
76894;SDS011;65855;42.030;13.078;2023-08-06T01:43:03;6.80;;;2.17;;
76894;SDS011;65855;42.030;13.078;2023-08-06T01:45:28;5.40;;;2.58;;
76894;SDS011;65855;42.030;13.078;2023-08-06T01:47:54;7.43;;;2.53;;
76894;SDS011;65855;42.030;13.078;2023-08-06T01:50:19;6.43;;;1.73;;
76894;SDS011;65855;42.030;13.078;2023-08-06T01:52:44;6.32;;;1.88;;
76894;SDS011;65855;42.030;13.078;2023-08-06T01:55:10;8.45;;;2.72;;
76894;SDS011;65855;42.030;13.078;2023-08-06T01:57:35;9.60;;;2.03;;
76894;SDS011;65855;42.030;13.078;2023-08-06T02:00:01;6.13;;;2.33;;
76894;SDS011;65855;42.030;13.078;2023-08-06T02:02:26;6.57;;;2.05;;
76894;SDS011;65855;42.030;13.078;2023-08-06T02:04:51;5.85;;;2.63;;
76894;SDS011;65855;42.030;13.078;2023-08-06T02:07:17;6.10;;;2.72;;
76894;SDS011;65855;42.030;13.078;2023-08-06T02:09:42;5.78;;;2.20;;
76894;SDS011;65855;42.030;13.078;2023-08-06T02:12:08;5.68;;;2.33;;
76894;SDS011;65855;42.030;13.078;2023-08-06T02:14:33;8.15;;;2.15;;
76894;SDS011;65855;42.030;13.078;2023-08-06T02:16:59;7.80;;;2.35;;
76894;SDS011;65855;42.030;13.078;2023-08-06T02:19:24;5.55;;;2.53;;
76894;SDS011;65855;42.030;13.078;2023-08-06T02:21:50;8.80;;;3.33;;
76894;SDS011;65855;42.030;13.078;2023-08-06T02:24:15;7.15;;;2.75;;
76894;SDS011;65855;42.030;13.078;2023-08-06T02:26:41;5.85;;;2.45;;
76894;SDS011;65855;42.030;13.078;2023-08-06T02:29:06;7.53;;;2.83;;
76894;SDS011;65855;42.030;13.078;2023-08-06T02:31:31;6.72;;;3.10;;
76894;SDS011;65855;42.030;13.078;2023-08-06T02:33:57;5.70;;;2.28;;
76894;SDS011;65855;42.030;13.078;2023-08-06T02:36:23;6.03;;;2.78;;
76894;SDS011;65855;42.030;13.078;2023-08-06T02:38:49;6.15;;;2.67;;
76894;SDS011;65855;42.030;13.078;2023-08-06T02:41:14;7.68;;;2.28;;
76894;SDS011;65855;42.030;13.078;2023-08-06T02:43:40;4.72;;;1.48;;
76894;SDS011;65855;42.030;13.078;2023-08-06T02:46:05;9.68;;;2.50;;
76894;SDS011;65855;42.030;13.078;2023-08-06T02:48:30;5.50;;;1.98;;
76894;SDS011;65855;42.030;13.078;2023-08-06T02:50:59;6.32;;;1.90;;
76894;SDS011;65855;42.030;13.078;2023-08-06T02:53:25;6.78;;;1.80;;
76894;SDS011;65855;42.030;13.078;2023-08-06T02:55:50;5.13;;;2.03;;
76894;SDS011;65855;42.030;13.078;2023-08-06T02:58:16;4.53;;;2.10;;
76894;SDS011;65855;42.030;13.078;2023-08-06T03:00:43;5.78;;;2.38;;
76894;SDS011;65855;42.030;13.078;2023-08-06T03:03:09;4.32;;;2.10;;
76894;SDS011;65855;42.030;13.078;2023-08-06T03:05:34;5.22;;;1.80;;
76894;SDS011;65855;42.030;13.078;2023-08-06T03:08:00;4.95;;;1.85;;
76894;SDS011;65855;42.030;13.078;2023-08-06T03:10:25;5.22;;;1.55;;
76894;SDS011;65855;42.030;13.078;2023-08-06T03:12:51;3.83;;;1.52;;
76894;SDS011;65855;42.030;13.078;2023-08-06T03:15:16;4.95;;;1.80;;
76894;SDS011;65855;42.030;13.078;2023-08-06T03:17:42;3.35;;;1.75;;
76894;SDS011;65855;42.030;13.078;2023-08-06T03:20:09;3.83;;;1.27;;
76894;SDS011;65855;42.030;13.078;2023-08-06T03:22:34;5.75;;;1.23;;
76894;SDS011;65855;42.030;13.078;2023-08-06T03:25:00;4.78;;;1.65;;
76894;SDS011;65855;42.030;13.078;2023-08-06T03:27:25;4.13;;;1.45;;
76894;SDS011;65855;42.030;13.078;2023-08-06T03:29:51;10.82;;;2.47;;
76894;SDS011;65855;42.030;13.078;2023-08-06T03:32:16;5.32;;;1.35;;
76894;SDS011;65855;42.030;13.078;2023-08-06T03:34:41;6.03;;;3.25;;
76894;SDS011;65855;42.030;13.078;2023-08-06T03:37:07;4.05;;;1.67;;
76894;SDS011;65855;42.030;13.078;2023-08-06T03:39:32;4.60;;;1.92;;
76894;SDS011;65855;42.030;13.078;2023-08-06T03:41:58;3.83;;;1.17;;
76894;SDS011;65855;42.030;13.078;2023-08-06T03:44:23;4.82;;;1.23;;
76894;SDS011;65855;42.030;13.078;2023-08-06T03:46:49;4.38;;;1.73;;
76894;SDS011;65855;42.030;13.078;2023-08-06T03:49:14;5.88;;;1.85;;
76894;SDS011;65855;42.030;13.078;2023-08-06T03:51:39;4.88;;;1.95;;
76894;SDS011;65855;42.030;13.078;2023-08-06T03:54:05;6.45;;;1.35;;
76894;SDS011;65855;42.030;13.078;2023-08-06T03:56:30;5.60;;;1.95;;
76894;SDS011;65855;42.030;13.078;2023-08-06T03:58:56;7.55;;;2.08;;
76894;SDS011;65855;42.030;13.078;2023-08-06T04:01:21;6.35;;;1.92;;
76894;SDS011;65855;42.030;13.078;2023-08-06T04:03:47;4.82;;;2.10;;
76894;SDS011;65855;42.030;13.078;2023-08-06T04:06:12;4.75;;;1.95;;
76894;SDS011;65855;42.030;13.078;2023-08-06T04:08:37;6.00;;;2.10;;
76894;SDS011;65855;42.030;13.078;2023-08-06T04:11:03;6.00;;;2.63;;
76894;SDS011;65855;42.030;13.078;2023-08-06T04:13:28;7.60;;;1.85;;
76894;SDS011;65855;42.030;13.078;2023-08-06T04:15:54;4.10;;;1.85;;
76894;SDS011;65855;42.030;13.078;2023-08-06T04:18:19;5.00;;;1.95;;
76894;SDS011;65855;42.030;13.078;2023-08-06T04:20:45;4.63;;;2.38;;
76894;SDS011;65855;42.030;13.078;2023-08-06T04:23:11;3.83;;;1.98;;
76894;SDS011;65855;42.030;13.078;2023-08-06T04:25:37;3.33;;;1.02;;
76894;SDS011;65855;42.030;13.078;2023-08-06T04:28:02;2.70;;;0.93;;
76894;SDS011;65855;42.030;13.078;2023-08-06T04:30:28;3.10;;;1.10;;
76894;SDS011;65855;42.030;13.078;2023-08-06T04:32:53;4.70;;;1.42;;
76894;SDS011;65855;42.030;13.078;2023-08-06T04:35:19;4.90;;;1.40;;
76894;SDS011;65855;42.030;13.078;2023-08-06T04:37:44;3.45;;;1.23;;
76894;SDS011;65855;42.030;13.078;2023-08-06T04:40:09;2.03;;;0.75;;
76894;SDS011;65855;42.030;13.078;2023-08-06T04:42:35;2.78;;;1.10;;
76894;SDS011;65855;42.030;13.078;2023-08-06T04:45:01;3.67;;;1.52;;
76894;SDS011;65855;42.030;13.078;2023-08-06T04:47:27;1.27;;;0.52;;
76894;SDS011;65855;42.030;13.078;2023-08-06T04:49:52;1.15;;;0.60;;
76894;SDS011;65855;42.030;13.078;2023-08-06T04:52:18;2.58;;;1.20;;
76894;SDS011;65855;42.030;13.078;2023-08-06T04:54:43;2.83;;;1.23;;
76894;SDS011;65855;42.030;13.078;2023-08-06T04:57:09;2.08;;;1.13;;
76894;SDS011;65855;42.030;13.078;2023-08-06T04:59:35;4.55;;;1.17;;
76894;SDS011;65855;42.030;13.078;2023-08-06T05:02:00;2.47;;;1.23;;
76894;SDS011;65855;42.030;13.078;2023-08-06T05:04:26;3.35;;;1.75;;
76894;SDS011;65855;42.030;13.078;2023-08-06T05:06:52;3.00;;;1.15;;
76894;SDS011;65855;42.030;13.078;2023-08-06T05:09:17;3.70;;;0.77;;
76894;SDS011;65855;42.030;13.078;2023-08-06T05:11:43;2.33;;;1.02;;
76894;SDS011;65855;42.030;13.078;2023-08-06T05:14:08;2.95;;;0.93;;
76894;SDS011;65855;42.030;13.078;2023-08-06T05:16:34;2.97;;;0.77;;
76894;SDS011;65855;42.030;13.078;2023-08-06T05:18:59;3.05;;;0.80;;
76894;SDS011;65855;42.030;13.078;2023-08-06T05:21:24;7.97;;;1.48;;
76894;SDS011;65855;42.030;13.078;2023-08-06T05:23:50;3.70;;;1.38;;
76894;SDS011;65855;42.030;13.078;2023-08-06T05:26:15;3.25;;;1.35;;
76894;SDS011;65855;42.030;13.078;2023-08-06T05:28:43;2.60;;;0.98;;
76894;SDS011;65855;42.030;13.078;2023-08-06T05:31:09;2.67;;;0.90;;
76894;SDS011;65855;42.030;13.078;2023-08-06T05:33:35;2.70;;;1.08;;
76894;SDS011;65855;42.030;13.078;2023-08-06T05:36:00;3.22;;;1.35;;
76894;SDS011;65855;42.030;13.078;2023-08-06T05:38:26;3.15;;;1.02;;
76894;SDS011;65855;42.030;13.078;2023-08-06T05:40:51;2.72;;;0.80;;
76894;SDS011;65855;42.030;13.078;2023-08-06T05:43:17;2.83;;;1.05;;
76894;SDS011;65855;42.030;13.078;2023-08-06T05:45:45;3.10;;;0.57;;
76894;SDS011;65855;42.030;13.078;2023-08-06T05:48:14;2.13;;;0.65;;
76894;SDS011;65855;42.030;13.078;2023-08-06T05:50:39;2.85;;;1.08;;
76894;SDS011;65855;42.030;13.078;2023-08-06T05:53:05;3.58;;;1.23;;
76894;SDS011;65855;42.030;13.078;2023-08-06T05:55:30;2.53;;;1.20;;
76894;SDS011;65855;42.030;13.078;2023-08-06T05:57:57;4.55;;;0.73;;
76894;SDS011;65855;42.030;13.078;2023-08-06T06:00:22;2.85;;;1.25;;
76894;SDS011;65855;42.030;13.078;2023-08-06T06:02:48;6.68;;;1.08;;
76894;SDS011;65855;42.030;13.078;2023-08-06T06:05:13;2.72;;;0.95;;
76894;SDS011;65855;42.030;13.078;2023-08-06T06:07:39;4.80;;;1.55;;
76894;SDS011;65855;42.030;13.078;2023-08-06T06:10:04;3.67;;;1.27;;
76894;SDS011;65855;42.030;13.078;2023-08-06T06:12:30;3.25;;;1.02;;
76894;SDS011;65855;42.030;13.078;2023-08-06T06:14:56;4.97;;;1.55;;
76894;SDS011;65855;42.030;13.078;2023-08-06T06:17:21;2.15;;;0.63;;
76894;SDS011;65855;42.030;13.078;2023-08-06T06:19:46;2.60;;;0.50;;
76894;SDS011;65855;42.030;13.078;2023-08-06T06:22:12;2.10;;;0.70;;
76894;SDS011;65855;42.030;13.078;2023-08-06T06:24:37;2.72;;;0.80;;
76894;SDS011;65855;42.030;13.078;2023-08-06T06:27:03;2.85;;;0.50;;
76894;SDS011;65855;42.030;13.078;2023-08-06T06:29:29;1.95;;;0.65;;
76894;SDS011;65855;42.030;13.078;2023-08-06T06:31:54;2.20;;;0.50;;
76894;SDS011;65855;42.030;13.078;2023-08-06T06:34:20;1.63;;;0.50;;
76894;SDS011;65855;42.030;13.078;2023-08-06T06:36:45;3.30;;;0.90;;
76894;SDS011;65855;42.030;13.078;2023-08-06T06:39:11;3.40;;;0.75;;
76894;SDS011;65855;42.030;13.078;2023-08-06T06:41:36;2.78;;;0.63;;
76894;SDS011;65855;42.030;13.078;2023-08-06T06:44:01;2.22;;;0.70;;
76894;SDS011;65855;42.030;13.078;2023-08-06T06:46:27;2.30;;;0.73;;
76894;SDS011;65855;42.030;13.078;2023-08-06T06:48:53;2.25;;;0.45;;
76894;SDS011;65855;42.030;13.078;2023-08-06T06:51:18;2.53;;;0.60;;
76894;SDS011;65855;42.030;13.078;2023-08-06T06:53:43;4.25;;;0.60;;
76894;SDS011;65855;42.030;13.078;2023-08-06T06:56:09;2.13;;;0.63;;
76894;SDS011;65855;42.030;13.078;2023-08-06T06:58:34;4.43;;;0.65;;
76894;SDS011;65855;42.030;13.078;2023-08-06T07:01:00;1.55;;;0.40;;
76894;SDS011;65855;42.030;13.078;2023-08-06T07:03:25;1.65;;;0.32;;
76894;SDS011;65855;42.030;13.078;2023-08-06T07:05:51;1.85;;;0.40;;
76894;SDS011;65855;42.030;13.078;2023-08-06T07:08:16;4.70;;;0.70;;
76894;SDS011;65855;42.030;13.078;2023-08-06T07:10:42;1.65;;;0.70;;
76894;SDS011;65855;42.030;13.078;2023-08-06T07:13:08;1.83;;;0.40;;
76894;SDS011;65855;42.030;13.078;2023-08-06T07:15:34;3.15;;;0.60;;
76894;SDS011;65855;42.030;13.078;2023-08-06T07:17:59;2.38;;;0.80;;
76894;SDS011;65855;42.030;13.078;2023-08-06T07:20:24;2.70;;;0.45;;
76894;SDS011;65855;42.030;13.078;2023-08-06T07:22:50;1.58;;;0.43;;
76894;SDS011;65855;42.030;13.078;2023-08-06T07:25:16;3.80;;;0.75;;
76894;SDS011;65855;42.030;13.078;2023-08-06T07:27:42;1.98;;;0.50;;
76894;SDS011;65855;42.030;13.078;2023-08-06T07:30:07;0.85;;;0.30;;
76894;SDS011;65855;42.030;13.078;2023-08-06T07:32:33;3.40;;;0.60;;
76894;SDS011;65855;42.030;13.078;2023-08-06T07:34:59;3.58;;;0.50;;
76894;SDS011;65855;42.030;13.078;2023-08-06T07:37:26;3.55;;;0.68;;
76894;SDS011;65855;42.030;13.078;2023-08-06T07:39:53;2.72;;;0.65;;
76894;SDS011;65855;42.030;13.078;2023-08-06T07:42:19;2.75;;;0.70;;
76894;SDS011;65855;42.030;13.078;2023-08-06T07:44:50;3.15;;;0.50;;
76894;SDS011;65855;42.030;13.078;2023-08-06T07:47:17;2.25;;;0.65;;
76894;SDS011;65855;42.030;13.078;2023-08-06T07:49:43;2.60;;;0.50;;
76894;SDS011;65855;42.030;13.078;2023-08-06T07:52:08;4.43;;;0.50;;
76894;SDS011;65855;42.030;13.078;2023-08-06T07:54:33;2.22;;;0.63;;
76894;SDS011;65855;42.030;13.078;2023-08-06T07:56:59;2.78;;;0.88;;
76894;SDS011;65855;42.030;13.078;2023-08-06T07:59:24;2.05;;;0.47;;
76894;SDS011;65855;42.030;13.078;2023-08-06T08:01:50;2.40;;;0.50;;
76894;SDS011;65855;42.030;13.078;2023-08-06T08:04:15;1.63;;;0.40;;
76894;SDS011;65855;42.030;13.078;2023-08-06T08:06:41;2.33;;;0.60;;
76894;SDS011;65855;42.030;13.078;2023-08-06T08:09:06;2.25;;;0.75;;
76894;SDS011;65855;42.030;13.078;2023-08-06T08:11:32;2.03;;;0.50;;
76894;SDS011;65855;42.030;13.078;2023-08-06T08:13:57;2.65;;;0.88;;
76894;SDS011;65855;42.030;13.078;2023-08-06T08:16:23;2.70;;;0.73;;
76894;SDS011;65855;42.030;13.078;2023-08-06T08:18:48;2.90;;;0.45;;
76894;SDS011;65855;42.030;13.078;2023-08-06T08:21:13;1.90;;;0.35;;
76894;SDS011;65855;42.030;13.078;2023-08-06T08:23:39;2.03;;;0.50;;
76894;SDS011;65855;42.030;13.078;2023-08-06T08:26:04;2.17;;;0.88;;
76894;SDS011;65855;42.030;13.078;2023-08-06T08:28:30;1.98;;;0.50;;
76894;SDS011;65855;42.030;13.078;2023-08-06T08:30:55;1.95;;;0.45;;
76894;SDS011;65855;42.030;13.078;2023-08-06T08:33:21;1.92;;;0.50;;
76894;SDS011;65855;42.030;13.078;2023-08-06T08:35:47;2.13;;;0.30;;
76894;SDS011;65855;42.030;13.078;2023-08-06T08:38:12;2.83;;;0.40;;
76894;SDS011;65855;42.030;13.078;2023-08-06T08:40:46;0.80;;;0.25;;
76894;SDS011;65855;42.030;13.078;2023-08-06T08:43:13;1.50;;;0.30;;
76894;SDS011;65855;42.030;13.078;2023-08-06T08:45:40;1.52;;;0.30;;
76894;SDS011;65855;42.030;13.078;2023-08-06T08:48:08;0.98;;;0.40;;
76894;SDS011;65855;42.030;13.078;2023-08-06T08:50:36;1.55;;;0.65;;
76894;SDS011;65855;42.030;13.078;2023-08-06T08:53:01;2.22;;;0.68;;
76894;SDS011;65855;42.030;13.078;2023-08-06T08:55:28;4.13;;;0.80;;
76894;SDS011;65855;42.030;13.078;2023-08-06T08:57:53;0.95;;;0.32;;
76894;SDS011;65855;42.030;13.078;2023-08-06T09:00:19;2.15;;;0.68;;
76894;SDS011;65855;42.030;13.078;2023-08-06T09:02:44;1.00;;;0.40;;
76894;SDS011;65855;42.030;13.078;2023-08-06T09:05:11;2.75;;;0.40;;
76894;SDS011;65855;42.030;13.078;2023-08-06T09:07:45;1.77;;;0.50;;
76894;SDS011;65855;42.030;13.078;2023-08-06T09:10:13;2.08;;;0.50;;
76894;SDS011;65855;42.030;13.078;2023-08-06T09:12:43;2.40;;;0.50;;
76894;SDS011;65855;42.030;13.078;2023-08-06T09:15:09;2.45;;;0.50;;
76894;SDS011;65855;42.030;13.078;2023-08-06T09:17:35;3.35;;;0.55;;
76894;SDS011;65855;42.030;13.078;2023-08-06T09:20:13;2.17;;;0.55;;
76894;SDS011;65855;42.030;13.078;2023-08-06T09:22:39;0.98;;;0.40;;
76894;SDS011;65855;42.030;13.078;2023-08-06T09:25:06;1.90;;;0.43;;
76894;SDS011;65855;42.030;13.078;2023-08-06T09:27:35;1.83;;;0.50;;
76894;SDS011;65855;42.030;13.078;2023-08-06T09:30:02;1.83;;;0.60;;
76894;SDS011;65855;42.030;13.078;2023-08-06T09:32:39;2.42;;;0.73;;
76894;SDS011;65855;42.030;13.078;2023-08-06T09:35:15;2.97;;;0.60;;
76894;SDS011;65855;42.030;13.078;2023-08-06T09:37:41;2.38;;;0.50;;
76894;SDS011;65855;42.030;13.078;2023-08-06T09:40:28;1.63;;;0.70;;
76894;SDS011;65855;42.030;13.078;2023-08-06T09:42:54;2.00;;;0.50;;
76894;SDS011;65855;42.030;13.078;2023-08-06T09:45:20;2.67;;;0.82;;
76894;SDS011;65855;42.030;13.078;2023-08-06T09:47:47;3.40;;;0.90;;
76894;SDS011;65855;42.030;13.078;2023-08-06T09:50:17;3.95;;;0.90;;
76894;SDS011;65855;42.030;13.078;2023-08-06T09:52:43;3.60;;;0.63;;
76894;SDS011;65855;42.030;13.078;2023-08-06T09:55:10;3.42;;;1.05;;
76894;SDS011;65855;42.030;13.078;2023-08-06T09:57:37;3.67;;;0.85;;
76894;SDS011;65855;42.030;13.078;2023-08-06T10:00:03;4.50;;;1.17;;
76894;SDS011;65855;42.030;13.078;2023-08-06T10:02:30;8.93;;;1.85;;
76894;SDS011;65855;42.030;13.078;2023-08-06T10:04:57;2.50;;;0.98;;
76894;SDS011;65855;42.030;13.078;2023-08-06T10:07:23;2.63;;;0.77;;
76894;SDS011;65855;42.030;13.078;2023-08-06T10:09:49;3.58;;;0.80;;
76894;SDS011;65855;42.030;13.078;2023-08-06T10:12:14;6.90;;;1.90;;
76894;SDS011;65855;42.030;13.078;2023-08-06T10:14:43;7.68;;;1.90;;
76894;SDS011;65855;42.030;13.078;2023-08-06T10:17:10;6.25;;;1.83;;
76894;SDS011;65855;42.030;13.078;2023-08-06T10:19:36;5.55;;;1.80;;
76894;SDS011;65855;42.030;13.078;2023-08-06T10:22:08;5.07;;;1.45;;
76894;SDS011;65855;42.030;13.078;2023-08-06T10:27:28;5.72;;;1.38;;
76894;SDS011;65855;42.030;13.078;2023-08-06T10:32:49;6.15;;;2.00;;
76894;SDS011;65855;42.030;13.078;2023-08-06T10:40:40;9.35;;;1.33;;
76894;SDS011;65855;42.030;13.078;2023-08-06T10:43:25;4.53;;;1.25;;
76894;SDS011;65855;42.030;13.078;2023-08-06T10:46:03;6.80;;;1.70;;
76894;SDS011;65855;42.030;13.078;2023-08-06T10:48:38;6.80;;;2.55;;
76894;SDS011;65855;42.030;13.078;2023-08-06T10:51:11;3.75;;;1.65;;
76894;SDS011;65855;42.030;13.078;2023-08-06T10:53:40;7.57;;;1.85;;
76894;SDS011;65855;42.030;13.078;2023-08-06T10:56:14;6.45;;;1.45;;
76894;SDS011;65855;42.030;13.078;2023-08-06T10:58:41;7.78;;;2.10;;
76894;SDS011;65855;42.030;13.078;2023-08-06T11:01:07;7.75;;;1.83;;
76894;SDS011;65855;42.030;13.078;2023-08-06T11:03:33;5.90;;;1.42;;
76894;SDS011;65855;42.030;13.078;2023-08-06T11:05:59;6.07;;;1.80;;
76894;SDS011;65855;42.030;13.078;2023-08-06T11:10:51;7.15;;;2.03;;
76894;SDS011;65855;42.030;13.078;2023-08-06T11:13:17;12.25;;;2.50;;
76894;SDS011;65855;42.030;13.078;2023-08-06T11:15:44;8.80;;;2.50;;
76894;SDS011;65855;42.030;13.078;2023-08-06T11:18:09;9.18;;;1.70;;
76894;SDS011;65855;42.030;13.078;2023-08-06T11:20:35;9.10;;;2.03;;
76894;SDS011;65855;42.030;13.078;2023-08-06T11:23:01;9.90;;;2.58;;
76894;SDS011;65855;42.030;13.078;2023-08-06T11:25:27;11.32;;;2.47;;
76894;SDS011;65855;42.030;13.078;2023-08-06T11:27:52;8.73;;;1.75;;
76894;SDS011;65855;42.030;13.078;2023-08-06T11:30:18;8.93;;;1.88;;
76894;SDS011;65855;42.030;13.078;2023-08-06T11:32:46;10.88;;;2.85;;
76894;SDS011;65855;42.030;13.078;2023-08-06T11:35:12;9.23;;;2.55;;
76894;SDS011;65855;42.030;13.078;2023-08-06T11:37:39;11.75;;;2.80;;
76894;SDS011;65855;42.030;13.078;2023-08-06T11:40:08;9.85;;;2.00;;
76894;SDS011;65855;42.030;13.078;2023-08-06T11:42:36;10.95;;;2.00;;
76894;SDS011;65855;42.030;13.078;2023-08-06T11:45:02;7.05;;;1.80;;
76894;SDS011;65855;42.030;13.078;2023-08-06T11:47:29;9.15;;;2.63;;
76894;SDS011;65855;42.030;13.078;2023-08-06T11:49:55;8.48;;;2.63;;
76894;SDS011;65855;42.030;13.078;2023-08-06T11:52:21;6.70;;;1.80;;
76894;SDS011;65855;42.030;13.078;2023-08-06T11:57:32;8.95;;;2.70;;
76894;SDS011;65855;42.030;13.078;2023-08-06T12:00:03;8.88;;;1.90;;
76894;SDS011;65855;42.030;13.078;2023-08-06T12:02:31;11.20;;;1.95;;
76894;SDS011;65855;42.030;13.078;2023-08-06T12:05:09;8.68;;;1.85;;
76894;SDS011;65855;42.030;13.078;2023-08-06T12:07:37;7.72;;;2.10;;
76894;SDS011;65855;42.030;13.078;2023-08-06T12:10:03;11.02;;;2.20;;
76894;SDS011;65855;42.030;13.078;2023-08-06T12:12:28;8.18;;;2.10;;
76894;SDS011;65855;42.030;13.078;2023-08-06T12:14:54;11.70;;;1.90;;
76894;SDS011;65855;42.030;13.078;2023-08-06T12:17:20;11.05;;;2.03;;
76894;SDS011;65855;42.030;13.078;2023-08-06T12:19:46;8.23;;;2.55;;
76894;SDS011;65855;42.030;13.078;2023-08-06T12:22:12;14.77;;;2.53;;
76894;SDS011;65855;42.030;13.078;2023-08-06T12:24:39;11.07;;;2.10;;
76894;SDS011;65855;42.030;13.078;2023-08-06T12:27:05;9.50;;;1.77;;
76894;SDS011;65855;42.030;13.078;2023-08-06T12:29:31;5.57;;;1.50;;
76894;SDS011;65855;42.030;13.078;2023-08-06T12:31:56;9.50;;;2.33;;
76894;SDS011;65855;42.030;13.078;2023-08-06T12:34:22;8.40;;;2.50;;
76894;SDS011;65855;42.030;13.078;2023-08-06T12:36:48;12.27;;;2.72;;
76894;SDS011;65855;42.030;13.078;2023-08-06T12:39:13;9.98;;;1.50;;
76894;SDS011;65855;42.030;13.078;2023-08-06T12:41:38;9.73;;;2.10;;
76894;SDS011;65855;42.030;13.078;2023-08-06T12:44:04;9.48;;;2.25;;
76894;SDS011;65855;42.030;13.078;2023-08-06T12:46:29;14.32;;;2.72;;
76894;SDS011;65855;42.030;13.078;2023-08-06T12:48:56;10.82;;;2.55;;
76894;SDS011;65855;42.030;13.078;2023-08-06T12:51:22;7.13;;;1.73;;
76894;SDS011;65855;42.030;13.078;2023-08-06T12:53:48;9.73;;;2.40;;
76894;SDS011;65855;42.030;13.078;2023-08-06T12:56:14;9.90;;;1.95;;
76894;SDS011;65855;42.030;13.078;2023-08-06T12:58:39;9.57;;;2.63;;
76894;SDS011;65855;42.030;13.078;2023-08-06T13:01:05;7.30;;;1.73;;
76894;SDS011;65855;42.030;13.078;2023-08-06T13:03:30;8.75;;;1.92;;
76894;SDS011;65855;42.030;13.078;2023-08-06T13:05:56;10.13;;;2.63;;
76894;SDS011;65855;42.030;13.078;2023-08-06T13:08:22;6.15;;;1.73;;
76894;SDS011;65855;42.030;13.078;2023-08-06T13:10:48;6.13;;;1.42;;
76894;SDS011;65855;42.030;13.078;2023-08-06T13:13:14;10.48;;;2.28;;
76894;SDS011;65855;42.030;13.078;2023-08-06T13:15:39;11.07;;;2.10;;
76894;SDS011;65855;42.030;13.078;2023-08-06T13:18:04;14.82;;;2.25;;
76894;SDS011;65855;42.030;13.078;2023-08-06T13:20:30;6.68;;;2.00;;
76894;SDS011;65855;42.030;13.078;2023-08-06T13:22:57;8.02;;;1.98;;
76894;SDS011;65855;42.030;13.078;2023-08-06T13:25:24;11.73;;;2.80;;
76894;SDS011;65855;42.030;13.078;2023-08-06T13:27:50;5.05;;;1.20;;
76894;SDS011;65855;42.030;13.078;2023-08-06T13:30:15;10.52;;;2.65;;
76894;SDS011;65855;42.030;13.078;2023-08-06T13:32:43;12.25;;;2.97;;
76894;SDS011;65855;42.030;13.078;2023-08-06T13:35:09;7.80;;;1.80;;
76894;SDS011;65855;42.030;13.078;2023-08-06T13:37:35;8.05;;;1.83;;
76894;SDS011;65855;42.030;13.078;2023-08-06T13:40:00;7.93;;;2.08;;
76894;SDS011;65855;42.030;13.078;2023-08-06T13:42:26;7.47;;;1.52;;
76894;SDS011;65855;42.030;13.078;2023-08-06T13:44:51;3.42;;;0.98;;
76894;SDS011;65855;42.030;13.078;2023-08-06T13:47:16;13.38;;;2.58;;
76894;SDS011;65855;42.030;13.078;2023-08-06T13:49:42;5.53;;;1.23;;
76894;SDS011;65855;42.030;13.078;2023-08-06T13:52:07;7.60;;;2.20;;
76894;SDS011;65855;42.030;13.078;2023-08-06T13:54:33;8.15;;;2.03;;
76894;SDS011;65855;42.030;13.078;2023-08-06T13:56:58;8.70;;;1.88;;
76894;SDS011;65855;42.030;13.078;2023-08-06T13:59:23;8.02;;;1.60;;
76894;SDS011;65855;42.030;13.078;2023-08-06T14:01:49;6.90;;;1.77;;
76894;SDS011;65855;42.030;13.078;2023-08-06T14:04:15;7.40;;;1.92;;
76894;SDS011;65855;42.030;13.078;2023-08-06T14:06:41;7.90;;;1.88;;
76894;SDS011;65855;42.030;13.078;2023-08-06T14:09:07;8.98;;;1.95;;
76894;SDS011;65855;42.030;13.078;2023-08-06T14:11:33;4.78;;;1.13;;
76894;SDS011;65855;42.030;13.078;2023-08-06T14:13:59;8.98;;;1.85;;
76894;SDS011;65855;42.030;13.078;2023-08-06T14:16:25;11.18;;;2.50;;
76894;SDS011;65855;42.030;13.078;2023-08-06T14:18:50;7.43;;;1.75;;
76894;SDS011;65855;42.030;13.078;2023-08-06T14:21:16;9.20;;;2.40;;
76894;SDS011;65855;42.030;13.078;2023-08-06T14:23:41;9.23;;;1.50;;
76894;SDS011;65855;42.030;13.078;2023-08-06T14:26:07;8.18;;;1.95;;
76894;SDS011;65855;42.030;13.078;2023-08-06T14:28:33;9.13;;;2.20;;
76894;SDS011;65855;42.030;13.078;2023-08-06T14:30:58;9.38;;;2.05;;
76894;SDS011;65855;42.030;13.078;2023-08-06T14:33:24;10.25;;;1.52;;
76894;SDS011;65855;42.030;13.078;2023-08-06T14:35:49;11.27;;;1.58;;
76894;SDS011;65855;42.030;13.078;2023-08-06T14:38:15;11.38;;;1.73;;
76894;SDS011;65855;42.030;13.078;2023-08-06T14:40:40;7.97;;;1.65;;
76894;SDS011;65855;42.030;13.078;2023-08-06T14:43:06;11.30;;;2.00;;
76894;SDS011;65855;42.030;13.078;2023-08-06T14:45:31;9.32;;;2.38;;
76894;SDS011;65855;42.030;13.078;2023-08-06T14:47:57;10.93;;;2.20;;
76894;SDS011;65855;42.030;13.078;2023-08-06T14:50:22;9.30;;;3.13;;